Time;durP1;ratioP1;P1;durP2;ratioP2;P2;SDS_P1;SDS_P2;PMS_P1;PMS_P2;Temp;Humidity;BMP_temperature;BMP_pressure;BME280_temperature;BME280_humidity;BME280_pressure;Samples;Min_cycle;Max_cycle;Signal;HPM_P1;HPM_P2
2023/05/31 00:00:46;;;;;;;4.00;2.10;;;15.00;99.90;;;;;;4591561;19;20022;-24
2023/05/31 00:02:29;;;;;;;4.20;2.25;;;15.00;99.90;;;;;;4589733;19;20044;-26
2023/05/31 00:04:02;;;;;;;4.90;2.22;;;15.00;99.90;;;;;;4590606;19;20023;-24
2023/05/31 00:05:33;;;;;;;4.60;2.22;;;15.00;99.90;;;;;;4590926;19;20031;-24
2023/05/31 00:07:06;;;;;;;3.13;1.83;;;15.00;99.90;;;;;;4590206;19;20015;-23
2023/05/31 00:08:42;;;;;;;3.85;2.25;;;15.00;99.90;;;;;;4591078;19;20031;-24
2023/05/31 00:10:15;;;;;;;3.05;1.65;;;15.00;99.90;;;;;;4590920;19;20006;-24
2023/05/31 00:11:48;;;;;;;4.60;2.33;;;15.00;99.90;;;;;;4589926;19;20070;-23
2023/05/31 00:13:20;;;;;;;3.40;1.83;;;15.00;99.90;;;;;;4590263;19;20022;-30
2023/05/31 00:14:52;;;;;;;3.70;1.73;;;15.00;99.90;;;;;;4590621;19;20038;-28
2023/05/31 00:16:23;;;;;;;3.63;2.00;;;14.90;99.90;;;;;;4590829;19;20017;-22
2023/05/31 00:17:54;;;;;;;4.20;2.20;;;14.90;99.90;;;;;;4590837;19;20038;-25
2023/05/31 00:19:27;;;;;;;4.63;2.10;;;14.90;99.90;;;;;;4590715;19;20022;-26
2023/05/31 00:21:00;;;;;;;3.63;2.30;;;14.90;99.90;;;;;;4590389;19;20014;-22
2023/05/31 00:22:32;;;;;;;2.95;1.90;;;14.90;99.90;;;;;;4590848;19;20010;-23
2023/05/31 00:24:05;;;;;;;4.45;1.70;;;14.90;99.90;;;;;;4590889;19;20014;-28
2023/05/31 00:25:38;;;;;;;3.58;1.98;;;14.90;99.90;;;;;;4590889;19;20013;-24
2023/05/31 00:27:10;;;;;;;3.38;2.00;;;14.90;99.90;;;;;;4590337;19;20639;-25
2023/05/31 00:28:42;;;;;;;3.83;2.67;;;14.90;99.90;;;;;;4590161;19;20010;-25
2023/05/31 00:30:14;;;;;;;;;;;14.80;99.90;;;;;;4591334;19;19999;-24
2023/05/31 00:31:45;;;;;;;3.03;1.80;;;14.80;99.90;;;;;;4590745;19;19918;-28
2023/05/31 00:33:18;;;;;;;4.75;3.13;;;14.80;99.90;;;;;;4590026;19;20018;-28
2023/05/31 00:34:50;;;;;;;2.88;1.92;;;14.70;99.90;;;;;;4590757;19;20322;-23
2023/05/31 00:36:21;;;;;;;3.47;1.75;;;14.70;99.90;;;;;;4590594;19;20021;-24
2023/05/31 00:37:54;;;;;;;3.05;2.00;;;14.70;99.90;;;;;;4590499;19;20009;-23
2023/05/31 00:39:26;;;;;;;4.00;1.88;;;14.70;99.90;;;;;;4590394;19;20015;-27
2023/05/31 00:40:57;;;;;;;;;;;14.70;99.90;;;;;;4591611;19;20010;-24
2023/05/31 00:42:29;;;;;;;4.30;2.22;;;14.70;99.90;;;;;;4591008;19;19907;-24
2023/05/31 00:44:01;;;;;;;5.32;3.50;;;14.70;99.90;;;;;;4589992;19;20034;-24
2023/05/31 00:45:33;;;;;;;6.00;3.67;;;14.60;99.90;;;;;;4590074;19;20015;-26
2023/05/31 00:47:09;;;;;;;5.25;2.63;;;14.60;99.90;;;;;;4590684;19;20074;-26
2023/05/31 00:48:42;;;;;;;5.38;2.50;;;14.60;99.90;;;;;;4589571;19;20007;-24
2023/05/31 00:50:15;;;;;;;4.85;2.65;;;14.60;99.90;;;;;;4588744;19;20017;-26
2023/05/31 00:51:48;;;;;;;4.70;2.60;;;14.60;99.90;;;;;;4588928;19;20010;-24
2023/05/31 00:53:21;;;;;;;9.93;5.18;;;14.60;99.90;;;;;;4588299;19;20070;-22
2023/05/31 00:54:53;;;;;;;8.93;4.80;;;14.60;99.90;;;;;;4588806;19;20090;-23
2023/05/31 00:56:25;;;;;;;7.95;4.88;;;14.60;99.90;;;;;;4589342;19;20010;-25
2023/05/31 00:57:57;;;;;;;8.70;4.97;;;14.50;99.90;;;;;;4588657;19;20018;-25
2023/05/31 00:59:30;;;;;;;9.88;5.38;;;14.50;99.90;;;;;;4588615;19;20018;-24
2023/05/31 01:01:02;;;;;;;8.55;4.05;;;14.50;99.90;;;;;;4589181;19;20045;-26
2023/05/31 01:02:34;;;;;;;6.95;3.85;;;14.50;99.90;;;;;;4588585;19;20014;-24
2023/05/31 01:04:08;;;;;;;7.82;4.38;;;14.50;99.90;;;;;;4589243;19;20476;-26
2023/05/31 01:05:39;;;;;;;7.40;5.63;;;14.50;99.90;;;;;;4588962;19;20010;-24
2023/05/31 01:07:12;;;;;;;6.10;3.83;;;14.50;99.90;;;;;;4588870;19;20103;-27
2023/05/31 01:08:44;;;;;;;5.20;2.78;;;14.50;99.90;;;;;;4591692;19;20017;-29
2023/05/31 01:10:15;;;;;;;4.20;2.60;;;14.40;99.90;;;;;;4594551;19;20017;-23
2023/05/31 01:12:16;;;;;;;5.50;3.03;;;14.40;99.90;;;;;;4593667;19;20002;-26
2023/05/31 01:14:06;;;;;;;4.95;2.70;;;14.50;99.90;;;;;;4592258;19;20501;-24
2023/05/31 01:15:45;;;;;;;5.45;2.97;;;14.40;99.90;;;;;;4594195;19;20473;-24
2023/05/31 01:17:30;;;;;;;6.60;4.30;;;14.40;99.90;;;;;;4594155;19;20010;-25
2023/05/31 01:19:06;;;;;;;9.40;5.72;;;14.40;99.90;;;;;;4591612;19;20085;-24
2023/05/31 01:20:38;;;;;;;10.80;6.15;;;14.40;99.90;;;;;;4593185;19;20011;-23
2023/05/31 01:22:27;;;;;;;7.68;4.55;;;14.40;99.90;;;;;;4592947;19;20014;-24
2023/05/31 01:24:01;;;;;;;7.38;3.80;;;14.40;99.90;;;;;;4593857;19;20006;-29
2023/05/31 01:25:54;;;;;;;8.63;3.95;;;14.30;99.90;;;;;;4593648;19;20346;-26
2023/05/31 01:27:25;;;;;;;15.02;8.32;;;14.30;99.90;;;;;;4594188;19;20007;-23
2023/05/31 01:29:00;;;;;;;12.65;8.20;;;14.30;99.90;;;;;;4593345;19;20014;-25
2023/05/31 01:30:31;;;;;;;7.57;5.40;;;14.30;99.90;;;;;;4593056;19;20007;-25
2023/05/31 01:32:02;;;;;;;7.20;4.57;;;14.30;99.90;;;;;;4593485;19;20031;-24
2023/05/31 01:33:34;;;;;;;;;;;14.30;99.90;;;;;;4593282;19;20179;-24
2023/05/31 01:35:08;;;;;;;5.28;3.05;;;14.30;99.90;;;;;;4592975;19;19943;-22
2023/05/31 01:36:40;;;;;;;5.93;3.35;;;14.30;99.90;;;;;;4593561;19;20017;-25
2023/05/31 01:38:11;;;;;;;5.53;3.15;;;14.30;99.90;;;;;;4592628;19;20015;-22
2023/05/31 01:39:43;;;;;;;5.18;3.00;;;14.30;99.90;;;;;;4593311;19;20019;-23
2023/05/31 01:41:15;;;;;;;4.00;2.22;;;14.20;99.90;;;;;;4594237;19;20015;-26
2023/05/31 01:42:47;;;;;;;5.65;2.65;;;14.20;99.90;;;;;;4594113;19;20468;-24
2023/05/31 01:44:20;;;;;;;4.57;2.87;;;14.20;99.90;;;;;;4592329;19;20041;-24
2023/05/31 01:45:53;;;;;;;4.85;3.00;;;14.20;99.90;;;;;;4593234;19;20031;-24
2023/05/31 01:47:24;;;;;;;4.13;2.42;;;14.20;99.90;;;;;;4592929;19;20043;-25
2023/05/31 01:48:57;;;;;;;3.97;2.47;;;14.20;99.90;;;;;;4593699;19;20058;-23
2023/05/31 01:50:29;;;;;;;4.00;2.37;;;14.20;99.90;;;;;;4592340;19;20011;-23
2023/05/31 01:52:00;;;;;;;;;;;14.20;99.90;;;;;;4594529;19;20021;-25
2023/05/31 01:53:31;;;;;;;5.43;2.57;;;14.10;99.90;;;;;;4591750;19;19941;-24
2023/05/31 01:55:03;;;;;;;6.35;2.85;;;14.10;99.90;;;;;;4593653;19;20011;-24
2023/05/31 01:56:37;;;;;;;10.87;6.67;;;14.10;99.90;;;;;;4593404;19;20022;-27
2023/05/31 01:58:10;;;;;;;10.93;7.27;;;14.10;99.90;;;;;;4592599;19;20045;-24
2023/05/31 01:59:42;;;;;;;8.33;5.57;;;14.10;99.90;;;;;;4592629;19;20003;-23
2023/05/31 02:01:13;;;;;;;10.45;6.40;;;14.10;99.90;;;;;;4592307;19;20018;-28
2023/05/31 02:02:45;;;;;;;5.38;3.22;;;14.10;99.90;;;;;;4592218;19;20049;-25
2023/05/31 02:04:19;;;;;;;6.95;4.80;;;14.10;99.90;;;;;;4593250;19;20511;-23
2023/05/31 02:05:57;;;;;;;7.85;5.15;;;14.10;99.90;;;;;;4593535;19;20018;-25
2023/05/31 02:07:29;;;;;;;5.82;3.50;;;14.00;99.90;;;;;;4592152;19;20019;-22
2023/05/31 02:09:00;;;;;;;4.32;2.45;;;14.10;99.90;;;;;;4593327;19;20010;-27
2023/05/31 02:10:32;;;;;;;4.20;3.37;;;14.10;99.90;;;;;;4592874;19;20019;-24
2023/05/31 02:12:03;;;;;;;4.93;2.90;;;14.00;99.90;;;;;;4593823;19;20445;-24
2023/05/31 02:13:35;;;;;;;6.50;4.07;;;14.00;99.90;;;;;;4592685;19;20460;-28
2023/05/31 02:15:12;;;;;;;6.22;3.83;;;14.00;99.90;;;;;;4593269;19;20014;-24
2023/05/31 02:16:45;;;;;;;5.43;3.07;;;14.00;99.90;;;;;;4591724;19;20006;-24
2023/05/31 02:18:17;;;;;;;6.33;3.97;;;14.00;99.90;;;;;;4592809;19;20021;-25
2023/05/31 02:19:52;;;;;;;;;;;14.00;99.90;;;;;;4592726;19;20070;-22
2023/05/31 02:21:23;;;;;;;4.87;3.20;;;14.00;99.90;;;;;;4591972;19;19915;-24
2023/05/31 02:22:57;;;;;;;6.47;3.60;;;13.90;99.90;;;;;;4592414;19;20031;-28
2023/05/31 02:24:29;;;;;;;4.47;3.00;;;13.90;99.90;;;;;;4591881;19;20086;-28
2023/05/31 02:26:03;;;;;;;6.17;3.20;;;13.90;99.90;;;;;;4591495;19;20326;-25
2023/05/31 02:27:36;;;;;;;5.27;3.57;;;13.90;99.90;;;;;;4592488;19;20018;-25
2023/05/31 02:29:09;;;;;;;6.93;4.07;;;13.90;99.90;;;;;;4593115;19;20041;-24
2023/05/31 02:30:56;;;;;;;5.47;3.65;;;13.90;99.90;;;;;;4592403;19;19999;-25
2023/05/31 02:32:28;;;;;;;6.23;3.70;;;13.90;99.90;;;;;;4592450;19;20014;-23
2023/05/31 02:34:00;;;;;;;;;;;13.90;99.90;;;;;;4592741;19;20014;-24
2023/05/31 02:35:31;;;;;;;5.33;3.87;;;13.90;99.90;;;;;;4592942;19;19915;-24
2023/05/31 02:37:03;;;;;;;6.30;3.37;;;13.80;99.90;;;;;;4591358;19;20014;-25
2023/05/31 02:38:35;;;;;;;6.10;3.43;;;13.80;99.90;;;;;;4592179;19;20484;-24
2023/05/31 02:40:10;;;;;;;4.55;3.28;;;13.80;99.90;;;;;;4592496;19;20393;-25
2023/05/31 02:41:44;;;;;;;6.43;4.10;;;13.90;99.90;;;;;;4593202;19;20023;-24
2023/05/31 02:43:16;;;;;;;7.35;4.45;;;13.80;99.90;;;;;;4592666;19;20038;-23
2023/05/31 02:44:47;;;;;;;9.23;6.00;;;13.80;99.90;;;;;;4592326;19;20074;-25
2023/05/31 02:46:19;;;;;;;11.10;6.77;;;13.80;99.90;;;;;;4592613;19;20039;-27
2023/05/31 02:47:51;;;;;;;;;;;13.80;99.90;;;;;;4593768;19;20015;-25
2023/05/31 02:49:22;;;;;;;11.87;6.77;;;13.80;99.90;;;;;;4592596;19;19932;-23
2023/05/31 02:50:53;;;;;;;7.03;4.40;;;13.80;99.90;;;;;;4592228;19;20472;-24
2023/05/31 02:52:26;;;;;;;6.28;4.38;;;13.80;99.90;;;;;;4592828;19;20013;-25
2023/05/31 02:53:57;;;;;;;6.90;4.60;;;13.80;99.90;;;;;;4591631;19;20464;-27
2023/05/31 02:55:30;;;;;;;7.85;4.63;;;13.80;99.90;;;;;;4592435;19;20062;-22
2023/05/31 02:57:02;;;;;;;10.50;5.40;;;13.70;99.90;;;;;;4591177;19;20011;-25
2023/05/31 02:58:33;;;;;;;5.40;3.50;;;13.80;99.90;;;;;;4591765;19;20358;-27
2023/05/31 03:00:12;;;;;;;5.20;3.20;;;13.70;99.90;;;;;;4591129;19;20365;-25
2023/05/31 03:01:44;;;;;;;4.57;3.03;;;13.80;99.90;;;;;;4592683;19;20452;-24
2023/05/31 03:03:18;;;;;;;7.00;4.70;;;13.70;99.90;;;;;;4592147;19;20014;-24
2023/05/31 03:04:51;;;;;;;6.20;3.87;;;13.70;99.90;;;;;;4591080;19;20014;-28
2023/05/31 03:06:23;;;;;;;7.40;4.43;;;13.70;99.90;;;;;;4592061;19;20015;-24
2023/05/31 03:07:55;;;;;;;;;;;13.70;99.90;;;;;;4592153;19;20042;-23
2023/05/31 03:09:26;;;;;;;6.40;4.50;;;13.70;99.90;;;;;;4592122;19;19935;-26
2023/05/31 03:10:57;;;;;;;5.57;3.67;;;13.70;99.90;;;;;;4592583;19;20473;-24
2023/05/31 03:12:31;;;;;;;4.90;3.30;;;13.70;99.90;;;;;;4591213;19;20013;-25
2023/05/31 03:14:03;;;;;;;4.33;2.93;;;13.70;99.90;;;;;;4590449;19;20018;-25
2023/05/31 03:15:36;;;;;;;5.40;3.10;;;13.70;99.90;;;;;;4591774;19;20361;-27
2023/05/31 03:17:09;;;;;;;4.07;2.80;;;13.70;99.90;;;;;;4592479;19;20015;-26
2023/05/31 03:18:40;;;;;;;6.35;3.13;;;13.70;99.90;;;;;;4591553;19;20011;-21
2023/05/31 03:20:11;;;;;;;4.70;2.83;;;13.60;99.90;;;;;;4591629;19;20015;-23
2023/05/31 03:21:42;;;;;;;5.32;4.18;;;13.70;99.90;;;;;;4591709;19;20035;-26
2023/05/31 03:23:15;;;;;;;4.77;3.37;;;13.60;99.90;;;;;;4592146;19;20299;-25
2023/05/31 03:24:47;;;;;;;4.10;2.78;;;13.60;99.90;;;;;;4592299;19;20011;-24
2023/05/31 03:26:19;;;;;;;5.30;3.33;;;13.60;99.90;;;;;;4591427;19;20024;-24
2023/05/31 03:27:51;;;;;;;5.45;3.67;;;13.60;99.90;;;;;;4592049;19;20362;-29
2023/05/31 03:29:24;;;;;;;5.83;3.70;;;13.60;99.90;;;;;;4592235;19;20464;-25
2023/05/31 03:30:57;;;;;;;7.30;4.20;;;13.60;99.90;;;;;;4590998;19;20025;-26
2023/05/31 03:32:28;;;;;;;6.90;3.70;;;13.60;99.90;;;;;;4590006;19;20369;-25
2023/05/31 03:34:00;;;;;;;5.68;3.35;;;13.70;99.90;;;;;;4590641;19;20035;-27
2023/05/31 03:35:32;;;;;;;5.30;3.63;;;13.70;99.90;;;;;;4590249;19;20372;-28
2023/05/31 03:37:04;;;;;;;6.20;3.47;;;13.70;99.90;;;;;;4591821;19;20031;-23
2023/05/31 03:38:37;;;;;;;5.53;3.23;;;13.70;99.90;;;;;;4590200;19;20114;-26
2023/05/31 03:40:09;;;;;;;6.03;3.83;;;13.70;99.90;;;;;;4590977;19;20006;-24
2023/05/31 03:41:41;;;;;;;5.53;3.40;;;13.70;99.90;;;;;;4591581;19;20070;-23
2023/05/31 03:43:13;;;;;;;5.90;3.90;;;13.70;99.90;;;;;;4591197;19;20325;-24
2023/05/31 03:44:44;;;;;;;6.13;4.35;;;13.70;99.90;;;;;;4591479;19;20018;-24
2023/05/31 03:46:18;;;;;;;5.67;3.60;;;13.70;99.90;;;;;;4593317;19;20020;-21
2023/05/31 03:47:50;;;;;;;6.07;4.27;;;13.70;99.90;;;;;;4590274;19;20035;-23
2023/05/31 03:49:23;;;;;;;5.80;3.63;;;13.80;99.90;;;;;;4590600;19;20468;-27
2023/05/31 03:50:56;;;;;;;5.67;3.77;;;13.80;99.90;;;;;;4591515;19;20018;-27
2023/05/31 03:52:28;;;;;;;7.90;4.53;;;13.90;99.90;;;;;;4589925;19;20010;-24
2023/05/31 03:54:01;;;;;;;12.67;8.93;;;13.90;99.90;;;;;;4589746;19;20002;-24
2023/05/31 03:55:35;;;;;;;11.90;7.87;;;13.90;99.90;;;;;;4591879;19;20011;-23
2023/05/31 03:57:07;;;;;;;6.30;4.32;;;14.00;99.90;;;;;;4592917;19;20019;-23
2023/05/31 03:58:39;;;;;;;5.13;3.30;;;14.00;99.90;;;;;;4591186;19;20019;-23
2023/05/31 04:00:14;;;;;;;5.43;3.78;;;14.00;99.90;;;;;;4591550;19;20010;-25
2023/05/31 04:01:45;;;;;;;5.23;3.23;;;14.00;99.90;;;;;;4592677;19;20074;-25
2023/05/31 04:03:18;;;;;;;4.88;3.55;;;14.00;99.90;;;;;;4591885;19;20052;-23
2023/05/31 04:04:50;;;;;;;6.57;3.60;;;14.10;99.90;;;;;;4590281;19;20014;-24
2023/05/31 04:06:23;;;;;;;6.90;3.83;;;14.10;99.90;;;;;;4591643;19;20002;-25
2023/05/31 04:07:55;;;;;;;4.77;3.13;;;14.10;99.90;;;;;;4589808;19;20025;-23
2023/05/31 04:09:27;;;;;;;5.20;3.35;;;14.10;99.90;;;;;;4591202;19;20014;-25
2023/05/31 04:10:58;;;;;;;6.30;3.70;;;14.10;99.90;;;;;;4590640;19;20078;-27
2023/05/31 04:12:29;;;;;;;4.78;3.13;;;14.10;99.90;;;;;;4590813;19;20448;-26
2023/05/31 04:14:01;;;;;;;6.18;3.58;;;14.20;99.90;;;;;;4589990;19;20338;-25
2023/05/31 04:15:32;;;;;;;6.55;3.97;;;14.10;99.90;;;;;;4590829;19;20038;-22
2023/05/31 04:17:04;;;;;;;6.95;5.43;;;14.20;99.90;;;;;;4589428;19;20059;-22
2023/05/31 04:18:36;;;;;;;5.53;4.15;;;14.20;99.90;;;;;;4588913;19;20014;-24
2023/05/31 04:20:08;;;;;;;6.80;4.90;;;14.20;99.90;;;;;;4590258;19;20043;-24
2023/05/31 04:21:39;;;;;;;;;;;14.20;99.90;;;;;;4592557;19;20014;-25
2023/05/31 04:23:10;;;;;;;5.20;4.15;;;14.20;99.90;;;;;;4589327;19;19971;-22
2023/05/31 04:24:43;;;;;;;8.60;5.05;;;14.20;99.90;;;;;;4589235;19;20472;-23
2023/05/31 04:26:16;;;;;;;5.60;3.75;;;14.20;99.90;;;;;;4590216;19;20034;-24
2023/05/31 04:27:49;;;;;;;5.22;3.70;;;14.20;99.90;;;;;;4590200;19;20015;-28
2023/05/31 04:29:26;;;;;;;5.05;3.58;;;14.20;99.90;;;;;;4591144;19;20066;-24
2023/05/31 04:31:00;;;;;;;7.28;3.60;;;14.20;99.90;;;;;;4589933;19;20025;-23
2023/05/31 04:32:34;;;;;;;4.25;3.15;;;14.20;99.90;;;;;;4590074;19;20007;-27
2023/05/31 04:34:05;;;;;;;4.80;3.45;;;14.20;99.90;;;;;;4589895;19;20022;-24
2023/05/31 04:35:36;;;;;;;4.65;3.50;;;14.20;99.90;;;;;;4590393;19;20018;-24
2023/05/31 04:37:08;;;;;;;4.78;3.63;;;14.20;99.90;;;;;;4589477;19;20011;-26
2023/05/31 04:38:40;;;;;;;4.78;3.70;;;14.20;99.90;;;;;;4586887;19;20026;-27
2023/05/31 04:40:11;;;;;;;5.32;3.08;;;14.30;99.90;;;;;;4589225;19;20032;-26
2023/05/31 04:41:42;;;;;;;5.45;3.70;;;14.30;99.90;;;;;;4590349;19;20103;-27
2023/05/31 04:43:14;;;;;;;;;;;14.30;99.90;;;;;;4588733;19;20010;-24
2023/05/31 04:44:45;;;;;;;4.80;3.58;;;14.30;99.90;;;;;;4589224;19;19910;-28
2023/05/31 04:46:16;;;;;;;5.45;3.35;;;14.30;99.90;;;;;;4591370;19;20341;-24
2023/05/31 04:47:49;;;;;;;5.97;3.70;;;14.30;99.90;;;;;;4589396;19;20109;-27
2023/05/31 04:49:20;;;;;;;5.47;3.63;;;14.30;99.90;;;;;;4587349;19;20019;-28
2023/05/31 04:50:54;;;;;;;6.30;3.88;;;14.30;99.90;;;;;;4588334;19;20383;-25
2023/05/31 04:52:28;;;;;;;7.65;4.10;;;14.30;99.90;;;;;;4589702;19;20003;-25
2023/05/31 04:54:00;;;;;;;5.70;3.95;;;14.30;99.90;;;;;;4588854;19;20015;-25
2023/05/31 04:55:31;;;;;;;5.43;3.50;;;14.40;99.90;;;;;;4589572;19;20039;-25
2023/05/31 04:57:04;;;;;;;5.57;3.33;;;14.40;99.90;;;;;;4590189;19;20010;-24
2023/05/31 04:58:35;;;;;;;;;;;14.40;99.90;;;;;;4591320;19;20010;-24
2023/05/31 05:00:10;;;;;;;5.35;3.35;;;14.40;99.90;;;;;;4589531;19;19918;-25
2023/05/31 05:01:41;;;;;;;4.70;3.33;;;14.40;99.90;;;;;;4590090;19;20015;-25
2023/05/31 05:03:13;;;;;;;7.10;3.97;;;14.40;99.90;;;;;;4590016;19;20097;-26
2023/05/31 05:04:45;;;;;;;5.05;3.38;;;14.40;99.90;;;;;;4589156;19;20006;-29
2023/05/31 05:06:17;;;;;;;5.47;3.40;;;14.40;99.90;;;;;;4590237;19;20014;-23
2023/05/31 05:07:49;;;;;;;4.85;3.05;;;14.50;99.90;;;;;;4588218;19;20043;-25
2023/05/31 05:09:20;;;;;;;;;;;14.50;99.90;;;;;;4590854;19;20036;-26
2023/05/31 05:10:51;;;;;;;5.37;3.13;;;14.50;99.90;;;;;;4590238;19;19922;-23
2023/05/31 05:12:22;;;;;;;4.65;2.90;;;14.50;99.90;;;;;;4589295;19;20834;-27
2023/05/31 05:13:54;;;;;;;4.55;3.00;;;14.50;99.90;;;;;;4589349;19;20524;-26
2023/05/31 05:15:25;;;;;;;;;;;14.50;99.90;;;;;;4590331;19;20011;-24
2023/05/31 05:16:56;;;;;;;5.60;2.78;;;14.50;99.90;;;;;;4589002;19;20371;-28
2023/05/31 05:18:28;;;;;;;5.85;3.50;;;14.60;99.90;;;;;;4589433;19;20039;-24
2023/05/31 05:19:59;;;;;;;4.10;2.92;;;14.60;99.90;;;;;;4588100;19;20010;-23
2023/05/31 05:21:30;;;;;;;4.40;2.88;;;14.60;99.90;;;;;;4588564;19;20013;-24
2023/05/31 05:23:06;;;;;;;3.80;2.53;;;14.60;99.90;;;;;;4588900;19;20015;-27
2023/05/31 05:24:38;;;;;;;4.38;3.22;;;14.50;99.90;;;;;;4589071;19;20011;-24
2023/05/31 05:26:10;;;;;;;4.95;3.17;;;14.50;99.90;;;;;;4589685;19;20003;-26
2023/05/31 05:27:41;;;;;;;;;;;14.60;99.90;;;;;;4591018;19;20006;-24
2023/05/31 05:29:12;;;;;;;5.30;3.15;;;14.60;99.90;;;;;;4589123;19;19922;-24
2023/05/31 05:30:44;;;;;;;3.83;2.67;;;14.60;99.90;;;;;;4589313;19;20012;-24
2023/05/31 05:32:16;;;;;;;4.68;2.80;;;14.60;99.90;;;;;;4586691;19;20070;-29
2023/05/31 05:33:48;;;;;;;4.07;2.60;;;14.70;99.90;;;;;;4589123;19;20388;-26
2023/05/31 05:35:19;;;;;;;4.68;2.78;;;14.70;99.90;;;;;;4586459;19;20017;-24
2023/05/31 05:36:52;;;;;;;4.18;2.42;;;14.70;99.90;;;;;;4589283;19;20018;-25
2023/05/31 05:38:24;;;;;;;4.53;3.00;;;14.70;99.90;;;;;;4589654;19;20341;-28
2023/05/31 05:39:56;;;;;;;5.30;2.55;;;14.70;99.90;;;;;;4588824;19;20010;-22
2023/05/31 05:41:27;;;;;;;4.88;2.45;;;14.80;99.90;;;;;;4588553;19;20356;-27
2023/05/31 05:42:59;;;;;;;3.47;2.15;;;14.70;99.90;;;;;;4588288;19;20074;-23
2023/05/31 05:44:30;;;;;;;5.22;3.15;;;14.80;99.90;;;;;;4588220;19;20369;-22
2023/05/31 05:46:01;;;;;;;4.53;2.58;;;14.90;99.90;;;;;;4587923;19;20039;-26
2023/05/31 05:47:34;;;;;;;4.47;2.10;;;14.90;99.90;;;;;;4588485;19;20014;-22
2023/05/31 05:49:06;;;;;;;4.88;2.97;;;14.90;99.90;;;;;;4588227;19;20035;-24
2023/05/31 05:50:37;;;;;;;3.97;2.58;;;14.90;99.90;;;;;;4588133;19;20010;-23
2023/05/31 05:52:09;;;;;;;;;;;15.00;99.90;;;;;;4588955;19;20480;-24
2023/05/31 05:53:41;;;;;;;4.10;2.30;;;15.00;99.90;;;;;;4587950;19;19922;-22
2023/05/31 05:55:15;;;;;;;5.03;2.53;;;15.00;99.90;;;;;;4589257;19;20049;-22
2023/05/31 05:56:47;;;;;;;3.53;1.90;;;15.10;99.90;;;;;;4592449;19;20021;-25
2023/05/31 05:58:19;;;;;;;3.78;2.10;;;15.10;99.90;;;;;;4591800;19;20031;-23
2023/05/31 05:59:52;;;;;;;3.13;1.85;;;15.10;99.90;;;;;;4591336;19;20018;-24
2023/05/31 06:01:26;;;;;;;4.13;2.00;;;15.10;99.90;;;;;;4591410;19;20039;-25
2023/05/31 06:02:58;;;;;;;3.75;2.30;;;15.20;99.90;;;;;;4591613;19;20021;-24
2023/05/31 06:04:31;;;;;;;4.70;2.20;;;15.20;99.90;;;;;;4592471;19;20015;-27
2023/05/31 06:06:03;;;;;;;4.35;2.10;;;15.20;99.90;;;;;;4591431;19;20415;-23
2023/05/31 06:07:42;;;;;;;4.28;2.35;;;15.20;99.90;;;;;;4591946;19;20030;-23
2023/05/31 06:09:16;;;;;;;5.07;2.22;;;15.20;99.90;;;;;;4593308;19;20035;-25
2023/05/31 06:10:51;;;;;;;2.95;1.80;;;15.30;99.90;;;;;;4591071;19;20049;-23
2023/05/31 06:12:22;;;;;;;3.63;2.28;;;15.20;99.90;;;;;;4592102;19;20014;-25
2023/05/31 06:13:57;;;;;;;3.33;1.95;;;15.30;99.90;;;;;;4591588;19;20074;-26
2023/05/31 06:15:29;;;;;;;4.88;1.95;;;15.30;99.90;;;;;;4592306;19;20029;-23
2023/05/31 06:17:00;;;;;;;3.78;1.85;;;15.30;99.90;;;;;;4591714;19;20048;-28
2023/05/31 06:18:32;;;;;;;3.42;1.77;;;15.30;99.90;;;;;;4591152;19;20042;-23
2023/05/31 06:20:08;;;;;;;5.43;1.80;;;15.30;99.90;;;;;;4593495;19;20010;-24
2023/05/31 06:21:39;;;;;;;2.80;1.50;;;15.30;99.90;;;;;;4593620;19;20017;-24
2023/05/31 06:23:11;;;;;;;2.97;1.50;;;15.30;99.90;;;;;;4591753;19;20039;-24
2023/05/31 06:24:43;;;;;;;3.38;1.70;;;15.30;99.90;;;;;;4591703;19;20018;-25
2023/05/31 06:26:16;;;;;;;3.83;1.52;;;15.30;99.90;;;;;;4592453;19;20006;-25
2023/05/31 06:27:48;;;;;;;3.95;1.95;;;15.30;99.90;;;;;;4592584;19;20080;-27
2023/05/31 06:29:19;;;;;;;;;;;15.30;99.90;;;;;;4593873;19;20093;-24
2023/05/31 06:30:51;;;;;;;4.53;1.77;;;15.30;99.90;;;;;;4592485;19;19974;-27
2023/05/31 06:32:22;;;;;;;3.00;1.75;;;15.30;99.90;;;;;;4593415;19;20027;-26
2023/05/31 06:33:55;;;;;;;4.35;2.33;;;15.30;99.90;;;;;;4590873;19;20496;-23
2023/05/31 06:35:27;;;;;;;3.38;1.92;;;15.40;99.90;;;;;;4592299;19;20018;-23
2023/05/31 06:37:00;;;;;;;3.55;1.63;;;15.40;99.90;;;;;;4593168;19;20010;-28
2023/05/31 06:38:33;;;;;;;4.43;1.60;;;15.40;99.90;;;;;;4592923;19;20025;-29
2023/05/31 06:40:07;;;;;;;3.95;1.70;;;15.40;99.90;;;;;;4592774;19;20460;-28
2023/05/31 06:41:40;;;;;;;2.55;1.58;;;15.40;99.90;;;;;;4592537;19;20022;-23
2023/05/31 06:43:11;;;;;;;3.58;1.40;;;15.40;99.90;;;;;;4593070;19;20473;-25
2023/05/31 06:44:44;;;;;;;4.15;2.20;;;15.40;99.90;;;;;;4592853;19;20003;-25
2023/05/31 06:46:15;;;;;;;3.22;1.63;;;15.40;99.90;;;;;;4592507;19;20018;-23
2023/05/31 06:47:48;;;;;;;4.35;2.00;;;15.50;99.90;;;;;;4592761;19;20022;-24
2023/05/31 06:49:21;;;;;;;3.47;1.70;;;15.50;99.90;;;;;;4592687;19;20007;-23
2023/05/31 06:50:53;;;;;;;3.65;1.73;;;15.50;99.90;;;;;;4591590;19;20084;-22
2023/05/31 06:52:26;;;;;;;3.30;1.73;;;15.50;99.90;;;;;;4591787;19;20509;-23
2023/05/31 06:53:58;;;;;;;2.67;1.45;;;15.50;99.90;;;;;;4592192;19;20034;-24
2023/05/31 06:55:33;;;;;;;3.60;1.52;;;15.50;99.90;;;;;;4592416;19;20028;-23
2023/05/31 06:57:05;;;;;;;4.88;1.77;;;15.50;99.90;;;;;;4592532;19;20021;-23
2023/05/31 06:58:37;;;;;;;4.32;1.77;;;15.50;99.90;;;;;;4592456;19;20025;-24
2023/05/31 07:00:12;;;;;;;2.25;1.40;;;15.60;99.90;;;;;;4592722;19;20023;-25
2023/05/31 07:01:43;;;;;;;4.07;1.58;;;15.60;99.90;;;;;;4592645;19;20018;-23
2023/05/31 07:03:16;;;;;;;3.03;1.42;;;15.60;99.90;;;;;;4590780;19;20003;-24
2023/05/31 07:04:47;;;;;;;3.55;1.35;;;15.60;99.90;;;;;;4591765;19;20031;-27
2023/05/31 07:06:21;;;;;;;1.88;0.95;;;15.60;99.90;;;;;;4589095;19;20036;-24
2023/05/31 07:07:54;;;;;;;3.55;1.55;;;15.60;99.90;;;;;;4590463;19;20107;-23
2023/05/31 07:09:26;;;;;;;3.78;1.42;;;15.60;99.90;;;;;;4590790;19;20021;-24
2023/05/31 07:10:58;;;;;;;3.17;1.23;;;15.60;99.90;;;;;;4591803;19;20406;-27
2023/05/31 07:12:30;;;;;;;3.33;1.40;;;15.60;99.90;;;;;;4591629;19;20377;-23
2023/05/31 07:14:03;;;;;;;2.97;1.02;;;15.60;99.90;;;;;;4591540;19;20349;-23
2023/05/31 07:15:35;;;;;;;4.25;1.30;;;15.70;99.90;;;;;;4591847;19;20019;-25
2023/05/31 07:17:06;;;;;;;2.55;1.25;;;15.70;99.90;;;;;;4591856;19;20345;-25
2023/05/31 07:18:38;;;;;;;4.72;1.13;;;15.70;99.90;;;;;;4590803;19;20011;-24
2023/05/31 07:20:10;;;;;;;3.38;1.35;;;15.70;99.90;;;;;;4591943;19;20074;-24
2023/05/31 07:21:41;;;;;;;3.58;1.67;;;15.80;99.90;;;;;;4591514;19;20006;-26
2023/05/31 07:23:13;;;;;;;2.03;1.10;;;15.70;99.90;;;;;;4591988;19;20011;-28
2023/05/31 07:24:44;;;;;;;3.60;1.38;;;15.70;99.90;;;;;;4591907;19;20025;-24
2023/05/31 07:26:15;;;;;;;3.15;1.52;;;15.70;99.90;;;;;;4590449;19;19998;-29
2023/05/31 07:27:48;;;;;;;3.80;1.60;;;15.80;99.90;;;;;;4591307;19;20034;-23
2023/05/31 07:29:20;;;;;;;;;;;15.80;99.90;;;;;;4592689;19;20014;-23
2023/05/31 07:30:52;;;;;;;3.40;1.10;;;15.80;99.90;;;;;;4592466;19;20339;-25
2023/05/31 07:32:23;;;;;;;3.47;1.30;;;15.80;99.90;;;;;;4590347;19;20082;-24
2023/05/31 07:33:55;;;;;;;;;;;15.80;99.90;;;;;;4591591;19;20027;-24
2023/05/31 07:35:28;;;;;;;2.25;0.93;;;15.80;99.90;;;;;;4592097;19;19922;-28
2023/05/31 07:37:01;;;;;;;2.95;1.25;;;15.80;99.90;;;;;;4590789;19;20346;-23
2023/05/31 07:38:33;;;;;;;1.80;1.23;;;15.80;99.90;;;;;;4590776;19;20022;-25
2023/05/31 07:40:06;;;;;;;3.35;1.23;;;15.80;99.90;;;;;;4591628;19;20019;-29
2023/05/31 07:41:39;;;;;;;2.83;1.38;;;15.90;99.90;;;;;;4592007;19;20337;-27
2023/05/31 07:43:10;;;;;;;3.72;1.33;;;15.90;99.90;;;;;;4591160;19;20030;-24
2023/05/31 07:44:42;;;;;;;2.85;1.10;;;15.90;99.90;;;;;;4591303;19;20489;-24
2023/05/31 07:46:14;;;;;;;2.42;1.55;;;15.90;99.90;;;;;;4590328;19;20016;-24
2023/05/31 07:47:46;;;;;;;3.83;1.90;;;15.90;99.90;;;;;;4591295;19;20103;-25
2023/05/31 07:49:17;;;;;;;;;;;15.90;99.90;;;;;;4592254;19;20011;-27
2023/05/31 07:50:51;;;;;;;3.42;1.38;;;16.00;99.90;;;;;;4590967;19;19911;-27
2023/05/31 07:52:23;;;;;;;5.47;1.63;;;16.00;99.90;;;;;;4589935;19;20021;-26
2023/05/31 07:53:55;;;;;;;2.85;1.45;;;16.00;99.90;;;;;;4590617;19;20007;-25
2023/05/31 07:55:26;;;;;;;5.43;1.55;;;16.00;99.90;;;;;;4589940;19;20066;-26
2023/05/31 07:56:58;;;;;;;2.15;1.30;;;16.00;99.90;;;;;;4590772;19;20070;-24
2023/05/31 07:58:30;;;;;;;2.88;1.27;;;16.00;99.90;;;;;;4589705;19;20019;-26
2023/05/31 08:00:02;;;;;;;2.50;1.48;;;16.00;99.90;;;;;;4589867;19;20035;-26
2023/05/31 08:01:35;;;;;;;2.90;1.20;;;16.00;99.90;;;;;;4590586;19;20505;-26
2023/05/31 08:03:08;;;;;;;2.22;1.20;;;16.00;99.90;;;;;;4592303;19;20014;-23
2023/05/31 08:04:39;;;;;;;3.38;1.40;;;16.10;99.90;;;;;;4589160;19;20022;-24